Flight Track Log - Related Links

Times and Time Zones

All times are in EDT time to prevent confusion due to time zone crossing. See the AAL832 flight status page for this flight to view local times or setup timezone preferences in your user account.

Time Position Orientation Groundspeed Altitude Reporting Facility
EDT Latitude Longitude Course Direction KTS MPH feet Rate Location/Type
Wed 12:41:32 PM 33.9311 -118.4708 59° Northeast 203 234 2,000  Level Los Angeles Center
Wed 12:42:34 PM 33.9069 -118.5472 249° West 243 280 4,600 2,806 Climbing Los Angeles Center
Wed 12:43:00 PM 34.1384 -118.0566 59° Northeast  Level FlightAware Approximate
Wed 12:43:36 PM 33.8472 -118.6014 217° Southwest 277 319 7,800  Level Los Angeles Center
Wed 12:44:00 PM 34.2067 -117.9201 59° Northeast  Level FlightAware Approximate
Wed 12:44:38 PM 33.8106 -118.5194 118° Southeast 306 352 10,400  Level Los Angeles Center
Wed 12:45:00 PM 34.2778 -117.7860 46° Northeast  Level FlightAware Approximate
Wed 12:45:40 PM 33.8911 -118.4567 33° Northeast 356 410 12,000  Level Los Angeles Center
Wed 12:46:00 PM 34.3604 -117.6625 59° Northeast  Level FlightAware Approximate
Wed 12:46:42 PM 33.9683 -118.3742 42° Northeast 387 445 14,400  Level Los Angeles Center
Wed 12:47:44 PM 34.0306 -118.2606 57° Northeast 402 463 16,900 2,419 Climbing Los Angeles Center
Wed 12:48:46 PM 34.0947 -118.1469 56° Northeast 406 467 19,400 2,177 Climbing Los Angeles Center
Wed 12:49:48 PM 34.1608 -118.0303 56° Northeast 416 479 21,400 1,935 Climbing Los Angeles Center
Wed 12:50:50 PM 34.2286 -117.9103 56° Northeast 427 491 23,400 1,248 Climbing Los Angeles Center
Wed 12:51:53 PM 34.2967 -117.7892 56° Northeast 434 499 24,000 816 Climbing Los Angeles Center
Wed 12:52:55 PM 34.3789 -117.6419 56° Northeast 438 504 25,100 1,113 Climbing Los Angeles Center
Wed 12:53:57 PM 34.4392 -117.5367 54° Northeast 441 507 26,300 1,220 Climbing Los Angeles Center
Wed 12:54:00 PM 34.4623 -117.5073 54° Northeast  Level FlightAware Approximate
Wed 12:54:58 PM 34.5242 -117.4200 48° Northeast 452 520 27,600  Level Los Angeles Center
Wed 12:56:13 PM 34.6231 -117.2797 49° Northeast 467 537 29,400 1,489 Climbing Los Angeles Center
Wed 12:57:15 PM 34.7242 -117.1361 49° Northeast 470 541 31,000 1,452 Climbing Los Angeles Center
Wed 12:58:17 PM 34.8072 -117.0153 50° Northeast 470 541 32,400 1,392 Climbing Los Angeles Center
Wed 12:59:20 PM 34.9086 -116.8717 49° Northeast 469 540 33,900 1,440 Climbing Los Angeles Center
Wed 01:00:22 PM 34.9903 -116.7539 50° Northeast 455 524 35,400 823 Climbing Los Angeles Center
Wed 01:01:24 PM 35.0736 -116.6350 49° Northeast 460 529 35,600 532 Climbing Los Angeles Center
Wed 01:02:26 PM 35.1578 -116.5139 50° Northeast 467 537 36,500 629 Climbing Los Angeles Center
Wed 01:03:28 PM 35.2256 -116.4164 50° Northeast 469 540 36,900 242 Climbing Los Angeles Center
Wed 01:04:30 PM 35.3442 -116.2461 49° Northeast 470 541 37,000 48 Climbing Los Angeles Center
Wed 01:05:32 PM 35.4267 -116.1211 51° Northeast 472 543 37,000  Level Los Angeles Center
Wed 01:06:34 PM 35.5125 -115.9992 49° Northeast 471 542 37,000  Level Los Angeles Center
Wed 01:07:36 PM 35.5953 -115.8797 50° Northeast 470 541 37,000  Level Los Angeles Center
Wed 01:08:38 PM 35.6783 -115.7558 50° Northeast 470 541 37,000  Level Los Angeles Center
Wed 01:09:40 PM 35.7722 -115.6028 53° Northeast 467 537 37,000  Level Los Angeles Center
Wed 01:11:45 PM 35.9256 -115.3469 53° Northeast 466 536 37,000  Level Los Angeles Center
Wed 01:13:49 PM 36.0797 -115.0908 53° Northeast 467 537 37,000  Level Los Angeles Center
Wed 01:14:51 PM 36.1739 -114.9328 54° Northeast 478 550 37,000  Level Los Angeles Center
Wed 01:15:53 PM 36.2533 -114.8014 53° Northeast 479 551 37,000  Level Los Angeles Center
Wed 01:16:55 PM 36.3328 -114.6675 54° Northeast 482 555 37,000  Level Los Angeles Center
Wed 01:17:57 PM 36.4133 -114.5331 53° Northeast 485 558 37,000  Level Los Angeles Center
Wed 01:19:00 PM 36.4919 -114.3983 54° Northeast 484 557 37,000  Level Los Angeles Center
Wed 01:20:14 PM 36.5869 -114.2392 53° Northeast 480 552 37,000  Level Los Angeles Center
Wed 01:21:16 PM 36.6781 -114.0803 54° Northeast 476 548 37,000  Level Los Angeles Center
Wed 01:22:18 PM 36.7408 -113.9736 54° Northeast 476 548 37,000  Level Los Angeles Center
Wed 01:23:20 PM 36.8347 -113.8153 53° Northeast 474 545 37,000  Level Los Angeles Center
Wed 01:24:23 PM 36.9114 -113.6814 54° Northeast 474 545 37,000  Level Los Angeles Center
Wed 01:25:25 PM 37.0039 -113.5211 54° Northeast 475 547 37,000  Level Los Angeles Center
Wed 01:27:29 PM 37.1567 -113.2514 55° Northeast 475 547 37,000  Level Los Angeles Center
Wed 01:28:31 PM 37.2325 -113.1169 55° Northeast 474 545 37,000  Level Los Angeles Center
Wed 01:29:33 PM 37.3081 -112.9844 54° Northeast 471 542 37,000  Level Los Angeles Center
Wed 01:30:35 PM 37.3969 -112.8269 55° Northeast 467 537 37,000  Level Los Angeles Center
Wed 01:31:37 PM 37.4700 -112.6958 55° Northeast 468 539 37,000  Level Los Angeles Center
Wed 01:32:40 PM 37.5436 -112.5642 55° Northeast 469 540 37,000  Level Los Angeles Center
Wed 01:33:42 PM 37.6183 -112.4319 54° Northeast 468 539 37,000  Level Los Angeles Center
Wed 01:34:44 PM 37.7075 -112.2719 55° Northeast 469 540 37,000  Level Los Angeles Center
Wed 01:35:46 PM 37.7850 -112.1403 53° Northeast 470 541 37,000  Level Los Angeles Center
Wed 01:36:22 PM 37.8303 -112.0608 54° Northeast 469 540 37,000  Level Denver Center
Wed 01:36:53 PM 37.8622 -112.0069 53° Northeast 474 545 37,000  Level Salt Lake Center
Wed 01:37:55 PM 37.9556 -111.8461 54° Northeast 474 545 37,000  Level Salt Lake Center
Wed 01:38:57 PM 38.0325 -111.7103 54° Northeast 475 547 37,000  Level Salt Lake Center
Wed 01:39:59 PM 38.1100 -111.5744 54° Northeast 476 548 37,000  Level Salt Lake Center
Wed 01:40:30 PM 38.1403 -111.5192 55° Northeast 477 549 37,000  Level Denver Center
Wed 01:41:01 PM 38.1869 -111.4372 54° Northeast 478 550 37,000  Level Salt Lake Center
Wed 01:42:03 PM 38.2642 -111.3011 54° Northeast 476 548 37,000  Level Salt Lake Center
Wed 01:43:05 PM 38.3425 -111.1650 54° Northeast 478 550 37,000  Level Salt Lake Center
Wed 01:44:07 PM 38.4339 -110.9989 55° Northeast 478 550 37,000  Level Salt Lake Center
Wed 01:45:09 PM 38.5078 -110.8644 55° Northeast 479 551 37,000  Level Salt Lake Center
Wed 01:46:11 PM 38.5825 -110.7314 54° Northeast 481 554 37,000  Level Salt Lake Center
Wed 01:47:13 PM 38.6686 -110.5758 55° Northeast 480 552 37,000  Level Salt Lake Center
Wed 01:48:15 PM 38.7422 -110.4411 55° Northeast 482 555 37,000  Level Salt Lake Center
Wed 01:49:17 PM 38.8289 -110.2836 55° Northeast 483 556 37,000  Level Salt Lake Center
Wed 01:50:19 PM 38.9025 -110.1481 55° Northeast 484 557 37,000  Level Salt Lake Center
Wed 01:51:21 PM 38.9875 -109.9911 55° Northeast 481 554 37,000  Level Salt Lake Center
Wed 01:52:23 PM 39.0606 -109.8547 55° Northeast 482 555 37,000  Level Salt Lake Center
Wed 01:52:55 PM 39.1061 -109.7628 57° Northeast 478 550 37,000  Level Denver Center
Wed 01:53:25 PM 39.1439 -109.6989 53° Northeast 475 547 37,000  Level Salt Lake Center
Wed 01:54:27 PM 39.2153 -109.5650 55° Northeast 474 545 37,000  Level Salt Lake Center
Wed 01:55:29 PM 39.2972 -109.4117 55° Northeast 466 536 37,000  Level Salt Lake Center
Wed 01:56:01 PM 39.3319 -109.3431 57° Northeast 467 537 37,000  Level Denver Center
Wed 01:57:03 PM 39.4014 -109.2117 56° Northeast 465 535 37,000  Level Denver Center
Wed 01:58:05 PM 39.4825 -109.0575 56° Northeast 463 533 37,000  Level Denver Center
Wed 01:58:35 PM 39.5167 -108.9939 55° Northeast 462 532 37,000  Level Salt Lake Center
Wed 01:59:37 PM 39.5953 -108.8422 56° Northeast 455 524 37,000  Level Salt Lake Center
Wed 02:00:09 PM 39.6322 -108.7733 55° Northeast 461 531 37,000  Level Denver Center
Wed 02:01:11 PM 39.7089 -108.6247 56° Northeast 475 547 37,000  Level Denver Center
Wed 02:02:13 PM 39.7772 -108.4925 56° Northeast 465 535 37,000  Level Denver Center
Wed 02:03:15 PM 39.8606 -108.3356 55° Northeast 472 543 37,000  Level Denver Center
Wed 02:04:17 PM 39.9292 -108.2006 56° Northeast 470 541 37,000  Level Denver Center
Wed 02:05:19 PM 40.0072 -108.0433 57° Northeast 464 534 37,000  Level Denver Center
Wed 02:06:21 PM 40.0753 -107.9081 57° Northeast 467 537 37,000  Level Denver Center
Wed 02:07:23 PM 40.1475 -107.7425 60° Northeast 469 540 37,000  Level Denver Center
Wed 02:08:26 PM 40.2083 -107.6028 60° Northeast 464 534 37,000  Level Denver Center
Wed 02:09:28 PM 40.2811 -107.4372 60° Northeast 469 540 37,000  Level Denver Center
Wed 02:10:30 PM 40.3428 -107.2944 60° Northeast 470 541 37,000  Level Denver Center
Wed 02:11:32 PM 40.4144 -107.1283 60° Northeast 470 541 37,000  Level Denver Center
Wed 02:12:34 PM 40.4775 -106.9831 60° Northeast 476 548 37,000  Level Denver Center
Wed 02:13:36 PM 40.5364 -106.8450 61° Northeast 480 552 37,000  Level Denver Center
Wed 02:14:38 PM 40.6150 -106.6642 60° Northeast 476 548 37,000  Level Denver Center
Wed 02:15:40 PM 40.6792 -106.5100 61° Northeast 477 549 37,000  Level Denver Center
Wed 02:16:42 PM 40.7472 -106.3506 61° Northeast 477 549 37,000  Level Denver Center
Wed 02:17:44 PM 40.8097 -106.1961 62° Northeast 480 552 37,000  Level Denver Center
Wed 02:18:46 PM 40.8747 -106.0450 60° Northeast 478 550 37,000  Level Denver Center
Wed 02:19:48 PM 40.9375 -105.8908 62° Northeast 476 548 37,000  Level Denver Center
Wed 02:20:50 PM 41.0008 -105.7369 61° Northeast 477 549 37,000  Level Denver Center
Wed 02:21:52 PM 41.0728 -105.5625 61° Northeast 475 547 37,000  Level Denver Center
Wed 02:22:55 PM 41.1433 -105.3886 62° Northeast 479 551 37,000  Level Denver Center
Wed 02:23:57 PM 41.2053 -105.2375 61° Northeast 484 557 37,000  Level Denver Center
Wed 02:24:59 PM 41.2767 -105.0625 61° Northeast 485 558 37,000  Level Denver Center
Wed 02:26:01 PM 41.3372 -104.9086 62° Northeast 487 560 37,000  Level Denver Center
Wed 02:27:03 PM 41.3978 -104.7583 62° Northeast 487 560 37,000  Level Denver Center
Wed 02:28:05 PM 41.4672 -104.5811 62° Northeast 484 557 37,000  Level Denver Center
Wed 02:29:07 PM 41.5264 -104.4300 62° Northeast 482 555 37,000  Level Denver Center
Wed 02:30:09 PM 41.5961 -104.2531 62° Northeast 483 556 37,000  Level Denver Center
Wed 02:31:11 PM 41.6544 -104.1017 63° Northeast 482 555 37,000  Level Denver Center
Wed 02:32:13 PM 41.7236 -103.9236 62° Northeast 483 556 37,000  Level Denver Center
Wed 02:33:15 PM 41.7836 -103.7683 63° Northeast 490 564 37,000  Level Denver Center
Wed 02:34:17 PM 41.8525 -103.5867 63° Northeast 493 567 37,000  Level Denver Center
Wed 02:35:19 PM 41.9014 -103.4225 68° East 500 575 37,000  Level Denver Center
Wed 02:36:21 PM 41.9294 -103.2244 79° East 488 562 37,000  Level Denver Center
Wed 02:37:23 PM 41.9539 -103.0531 79° East 490 564 37,000  Level Denver Center
Wed 02:38:25 PM 41.9806 -102.8519 80° East 492 566 37,000  Level Denver Center
Wed 02:39:28 PM 42.0050 -102.6778 79° East 497 572 37,000  Level Denver Center
Wed 02:40:42 PM 42.0319 -102.4753 80° East 494 568 37,000  Level Denver Center
Wed 02:41:44 PM 42.0622 -102.2417 80° East 498 573 37,000  Level Denver Center
Wed 02:42:46 PM 42.0819 -102.0533 82° East 499 574 37,000 145 Level Denver Center
Wed 02:43:48 PM 42.1000 -101.8719 82° East 506 582 37,300 569 Climbing Denver Center
Wed 02:45:03 PM 42.1242 -101.6325 82° East 505 581 38,300 701 Climbing Denver Center
Wed 02:46:05 PM 42.1428 -101.4500 82° East 511 588 38,900 339 Climbing Denver Center
Wed 02:47:07 PM 42.1633 -101.2372 83° East 511 588 39,000 48 Climbing Denver Center
Wed 02:48:09 PM 42.1800 -101.0556 83° East 511 588 39,000  Level Denver Center
Wed 02:49:11 PM 42.2000 -100.8422 83° East 512 589 39,000  Level Denver Center
Wed 02:50:13 PM 42.2158 -100.6622 83° East 506 582 39,000  Level Denver Center
Wed 02:51:15 PM 42.2356 -100.4467 83° East 515 593 39,000  Level Denver Center
Wed 02:51:46 PM 42.2433 -100.3531 84° East 511 588 39,000  Level Minneapolis Center
Wed 02:52:48 PM 42.2597 -100.1608 83° East 513 590 39,000  Level Minneapolis Center
Wed 02:53:19 PM 42.2675 -100.0803 83° East 515 593 39,000  Level Denver Center
Wed 02:54:21 PM 42.2853 -99.8658 84° East 515 593 39,000  Level Denver Center
Wed 02:54:52 PM 42.2928 -99.7769 83° East 515 593 39,000  Level Minneapolis Center
Wed 02:55:55 PM 42.3086 -99.5853 84° East 513 590 39,000  Level Minneapolis Center
Wed 02:56:26 PM 42.3172 -99.4681 84° East 513 590 39,000  Level Denver Center
Wed 02:57:28 PM 42.3331 -99.2761 84° East 513 590 39,000  Level Denver Center
Wed 02:57:59 PM 42.3408 -99.1594 85° East 518 596 39,000  Level Minneapolis Center
Wed 02:59:01 PM 42.3508 -98.9642 86° East 519 597 39,000  Level Minneapolis Center
Wed 02:59:44 PM 42.3564 -98.8447 86° East 520 598 39,000  Level Denver Center
Wed 03:00:46 PM 42.3672 -98.6483 86° East 522 601 39,000  Level Denver Center
Wed 03:03:11 PM 42.3919 -98.1828 86° East 518 596 39,000  Level Minneapolis Center
Wed 03:04:13 PM 42.4025 -97.9508 86° East 516 594 39,000  Level Minneapolis Center
Wed 03:05:15 PM 42.4094 -97.7894 87° East 512 589 39,000  Level Minneapolis Center
Wed 03:06:17 PM 42.4200 -97.5567 86° East 514 592 39,000  Level Minneapolis Center
Wed 03:07:19 PM 42.4283 -97.3647 87° East 511 588 39,000  Level Minneapolis Center
Wed 03:08:21 PM 42.4361 -97.1697 87° East 518 596 39,000  Level Minneapolis Center
Wed 03:09:23 PM 42.4431 -96.9778 87° East 511 588 39,000  Level Minneapolis Center
Wed 03:10:25 PM 42.4503 -96.7825 87° East 515 593 39,000  Level Minneapolis Center
Wed 03:11:27 PM 42.4578 -96.5867 87° East 520 598 39,000  Level Minneapolis Center
Wed 03:12:29 PM 42.4647 -96.3900 87° East 520 598 39,000  Level Minneapolis Center
Wed 03:13:32 PM 42.4708 -96.1553 88° East 519 597 39,000  Level Minneapolis Center
Wed 03:14:34 PM 42.4778 -95.9581 87° East 522 601 39,000  Level Minneapolis Center
Wed 03:15:36 PM 42.4828 -95.7597 88° East 523 602 39,000  Level Minneapolis Center
Wed 03:16:38 PM 42.4883 -95.5603 88° East 528 608 39,000  Level Minneapolis Center
Wed 03:17:40 PM 42.4931 -95.3611 88° East 527 606 39,000  Level Minneapolis Center
Wed 03:18:42 PM 42.4967 -95.1644 89° East 523 602 39,000  Level Minneapolis Center
Wed 03:19:44 PM 42.5014 -94.9650 88° East 527 606 39,000  Level Minneapolis Center
Wed 03:20:46 PM 42.5047 -94.7264 89° East 527 606 39,000  Level Minneapolis Center
Wed 03:21:48 PM 42.5078 -94.5539 89° East 526 605 39,000  Level Minneapolis Center
Wed 03:22:50 PM 42.5119 -94.3192 89° East 524 603 39,000  Level Minneapolis Center
Wed 03:23:52 PM 42.5150 -94.1219 89° East 527 606 39,000  Level Minneapolis Center
Wed 03:24:54 PM 42.5164 -93.9253 89° East 527 606 39,000  Level Minneapolis Center
Wed 03:25:56 PM 42.5189 -93.7294 89° East 524 603 39,000  Level Minneapolis Center
Wed 03:26:58 PM 42.5211 -93.5331 89° East 526 605 39,000  Level Minneapolis Center
Wed 03:27:59 PM 42.5228 -93.2983 89° East 525 604 39,000  Level Minneapolis Center
Wed 03:29:01 PM 42.5239 -93.1031 89° East 523 602 39,000  Level Minneapolis Center
Wed 03:29:33 PM 42.5236 -93.0236 90° East 524 603 39,000  Level Chicago Center
Wed 03:30:35 PM 42.5247 -92.7911 90° East 522 601 39,000 -387 Level Chicago Center
Wed 03:31:37 PM 42.5250 -92.5958 90° East 522 601 38,200 -823 Descending Chicago Center
Wed 03:32:39 PM 42.5244 -92.3992 90° East 527 606 37,300 -919 Descending Chicago Center
Wed 03:33:41 PM 42.5239 -92.2017 90° East 530 610 36,300 -919 Descending Chicago Center
Wed 03:34:43 PM 42.5233 -92.0058 90° East 531 611 35,400 -1,008 Descending Chicago Center
Wed 03:35:46 PM 42.5256 -91.7692 89° East 533 613 34,200 -1,008 Descending Chicago Center
Wed 03:36:48 PM 42.5261 -91.5719 90° East 537 618 33,300 -968 Descending Chicago Center
Wed 03:37:50 PM 42.5267 -91.3731 90° East 539 620 32,200 -1,790 Descending Chicago Center
Wed 03:38:52 PM 42.5261 -91.1383 90° East 531 611 29,600 -2,226 Descending Chicago Center
Wed 03:39:54 PM 42.5258 -90.9478 90° East 518 596 27,600 -1,742 Descending Chicago Center
Wed 03:40:56 PM 42.5244 -90.7661 91° East 493 567 26,000 -774 Descending Chicago Center
Wed 03:41:58 PM 42.5247 -90.5889 90° East 479 551 26,000  Level Chicago Center
Wed 03:43:00 PM 42.5225 -90.4092 91° East 481 554 26,000  Level Chicago Center
Wed 03:44:02 PM 42.5206 -90.1950 91° East 479 551 26,000 -484 Level Chicago Center
Wed 03:45:04 PM 42.5122 -90.0117 93° East 491 565 25,000 -1,104 Descending Chicago Center
Wed 03:46:07 PM 42.4997 -89.8353 95° East 479 551 23,700 -1,632 Descending Chicago Center
Wed 03:47:09 PM 42.4867 -89.6322 95° East 465 535 21,600 -1,935 Descending Chicago Center
Wed 03:48:11 PM 42.4767 -89.4631 95° East 451 519 19,700 -2,081 Descending Chicago Center
Wed 03:49:13 PM 42.4653 -89.3003 95° East 437 503 17,300 -2,226 Descending Chicago Center
Wed 03:50:15 PM 42.4544 -89.1414 95° East 426 490 15,100 -2,032 Descending Chicago Center
Wed 03:51:17 PM 42.4439 -88.9886 95° East 410 472 13,100 -2,208 Descending Chicago Center
Wed 03:52:20 PM 42.4308 -88.8181 96° East 394 453 10,500 -1,500 Descending Chicago Center
Wed 03:53:21 PM 42.4217 -88.6783 95° East 378 435 10,000 -244 Descending Chicago Center
Wed 03:54:23 PM 42.3956 -88.5653 107° East 332 382 10,000  Level Chicago Center
Wed 03:55:25 PM 42.3617 -88.4578 113° Southeast 315 362 10,000 -432 Level Chicago Center
Wed 03:56:28 PM 42.3217 -88.3533 117° Southeast 314 361 9,100 -480 Descending Chicago Center
Wed 03:57:30 PM 42.2675 -88.2681 131° Southeast 304 350 9,000 -48 Descending Chicago Center
Wed 03:58:32 PM 42.2039 -88.1617 129° Southeast 304 350 9,000  Level Chicago Center
Wed 03:59:34 PM 42.1617 -88.0636 120° Southeast 319 367 9,000  Level Chicago Center
Wed 04:00:36 PM 42.1472 -87.9486 100° East 314 361 9,000  Level Chicago Center
Wed 04:01:38 PM 42.1319 -87.8336 100° East 314 361 9,000  Level Chicago Center
Wed 04:02:40 PM 42.1178 -87.7164 99° East 317 365 9,000 -97 Level Chicago Center
Wed 04:03:42 PM 42.0994 -87.5753 100° East 320 368 8,800 -484 Descending Chicago Center
Wed 04:04:44 PM 42.0903 -87.4669 96° East 298 343 8,000 -435 Descending Chicago Center
Wed 04:05:46 PM 42.0831 -87.3614 95° East 287 330 7,900 -480 Descending Chicago Center
Wed 04:06:49 PM 42.0244 -87.3547 175° South 239 275 7,000 -912 Descending Chicago Center
Wed 04:07:51 PM 41.9978 -87.4264 243° Southwest 219 252 6,000 -484 Descending Chicago Center
Wed 04:08:53 PM 41.9822 -87.5114 256° West 233 268 6,000 -677 Level Chicago Center
Wed 04:09:55 PM 41.9828 -87.6072 270° West 217 250 4,600 -1,210 Descending Chicago Center
Wed 04:10:57 PM 41.9844 -87.6867 272° West 216 249 3,500 -1,065 Descending Chicago Center
Wed 04:11:59 PM 41.9850 -87.7633 271° West 214 246 2,400 -919 Descending Chicago Center
Wed 04:13:01 PM 41.9842 -87.8300 269° West 201 231 1,600 -629 Descending Chicago Center
Wed 04:14:03 PM 41.9858 -87.8958 272° West 185 213 1,100 -484 Descending Chicago Center

Login

Don't have an account? Register now (free) for customized features, flight alerts, and more!